Fowlerton, Texas
Current Conditions -  °F | °C
As of 4:53 AM on Friday 31 Oct 2014 (Local Time) from KCOT Reporting Station
Scattered Clouds Scattered Clouds  
Wind Chill: 69°   Ceiling: Unl
Heat Index: 69°   Visibility: 10mi
Dew Point: 66°   Wind: 6mph
Humidity: 90%   Direction: 70°ENE
Pressure: 30.1"   Gusts: NA
Location:  28.47°N, 98.81°W
Report Text: KCOT 310953Z AUTO 07005KT 10SM SCT065 SCT090 21/19 A3010 RMK AO2 SLP185 T02060189
Loading
Personal Weather Stations






























Interactive Weather Map
Tropical Storm Tracking
New forecast layout! Learn more

10-Day Weather Forecast

Advertisements
Track Severe Weather on mobile